createdAt,value
2019-05-26T00:03:57.405Z,13.00
2019-05-26T00:09:15.716Z,12.99
2019-05-26T00:11:47.379Z,12.92
2019-05-26T00:16:52.076Z,12.88
2019-05-26T00:19:20.452Z,12.86
2019-05-26T00:21:51.837Z,12.79
2019-05-26T00:24:20.231Z,12.74
2019-05-26T00:29:24.872Z,12.72
2019-05-26T00:31:53.265Z,12.71
2019-05-26T00:34:40.742Z,12.71
2019-05-26T00:37:09.174Z,12.70
2019-05-26T00:39:47.674Z,12.69
2019-05-26T00:42:24.228Z,12.69
2019-05-26T00:44:52.629Z,12.73
2019-05-26T00:47:25.114Z,12.75
2019-05-26T00:49:53.502Z,12.74
2019-05-26T00:52:46.017Z,12.78
2019-05-26T00:55:28.155Z,12.82
2019-05-26T00:57:56.672Z,12.79
2019-05-26T01:00:41.543Z,12.77
2019-05-26T01:03:11.924Z,12.76
2019-05-26T01:05:44.591Z,12.73
2019-05-26T01:08:19.095Z,12.74
2019-05-26T01:10:47.507Z,12.76
2019-05-26T01:13:20.919Z,12.72
2019-05-26T01:15:50.318Z,12.72
2019-05-26T01:18:18.731Z,12.74
2019-05-26T01:20:47.097Z,12.74
2019-05-26T01:23:19.194Z,12.80
2019-05-26T01:25:47.573Z,12.82
2019-05-26T01:28:37.536Z,12.83
2019-05-26T01:31:05.961Z,12.79
2019-05-26T01:38:47.770Z,12.78
2019-05-26T01:41:21.581Z,12.74
2019-05-26T01:43:49.972Z,12.72
2019-05-26T01:46:29.165Z,12.67
2019-05-26T01:48:57.568Z,12.61
2019-05-26T01:51:29.384Z,12.60
2019-05-26T01:53:58.647Z,12.60
2019-05-26T01:56:46.155Z,12.59
2019-05-26T01:59:20.016Z,12.56
2019-05-26T02:01:49.368Z,12.58
2019-05-26T02:04:35.316Z,12.58
2019-05-26T02:09:40.026Z,12.63
2019-05-26T02:12:19.578Z,12.64
2019-05-26T02:14:47.970Z,12.66
2019-05-26T02:17:16.357Z,12.67
2019-05-26T02:19:45.656Z,12.70
2019-05-26T02:22:14.156Z,12.67
2019-05-26T02:24:42.530Z,12.58
2019-05-26T02:27:19.700Z,12.55
2019-05-26T02:32:24.302Z,12.55
2019-05-26T02:35:05.661Z,12.53
2019-05-26T02:37:34.074Z,12.51
2019-05-26T02:40:14.416Z,12.44
2019-05-26T02:42:42.821Z,12.40
2019-05-26T02:45:24.519Z,12.39
2019-05-26T02:48:10.187Z,12.42
2019-05-26T02:50:38.575Z,12.38
2019-05-26T02:53:13.202Z,12.39
2019-05-26T02:55:41.616Z,12.36
2019-05-26T02:58:23.753Z,12.35
2019-05-26T03:01:22.985Z,12.35
2019-05-26T03:03:51.344Z,12.31
2019-05-26T03:06:26.019Z,12.30
2019-05-26T03:11:32.572Z,12.30
2019-05-26T03:14:07.190Z,12.30
2019-05-26T03:16:35.569Z,12.26
2019-05-26T03:19:05.919Z,12.24
2019-05-26T03:21:35.188Z,12.21
2019-05-26T03:26:43.861Z,12.22
2019-05-26T03:29:22.345Z,12.22
2019-05-26T03:31:57.139Z,12.19
2019-05-26T03:34:25.647Z,12.19
2019-05-26T03:36:57.686Z,12.23
2019-05-26T03:39:43.517Z,12.30
2019-05-26T03:41:58.064Z,12.36
2019-05-26T03:44:26.434Z,12.41
2019-05-26T03:46:59.506Z,12.33
2019-05-26T03:49:27.994Z,12.33
2019-05-26T03:54:35.714Z,12.42
2019-05-26T03:57:04.077Z,12.49
2019-05-26T03:59:32.470Z,12.56
2019-05-26T04:02:23.995Z,12.49
2019-05-26T04:05:15.923Z,12.44
2019-05-26T04:07:46.226Z,12.45
2019-05-26T04:10:25.039Z,12.52
2019-05-26T04:12:57.030Z,12.57
2019-05-26T04:15:25.410Z,12.56
2019-05-26T04:17:58.702Z,12.60
2019-05-26T04:20:28.962Z,12.56
2019-05-26T04:23:09.792Z,12.61
2019-05-26T04:25:39.059Z,12.58
2019-05-26T04:28:11.269Z,12.53
2019-05-26T04:30:39.551Z,12.54
2019-05-26T04:33:07.957Z,12.54
2019-05-26T04:35:36.368Z,12.55
2019-05-26T04:38:10.718Z,12.71
2019-05-26T04:40:39.052Z,12.75
2019-05-26T04:43:08.324Z,12.76
2019-05-26T04:45:43.326Z,12.73
2019-05-26T04:48:11.742Z,12.78
2019-05-26T04:50:40.155Z,12.86
2019-05-26T04:53:08.537Z,13.13
2019-05-26T04:55:40.716Z,13.15
2019-05-26T04:58:10.249Z,13.07
2019-05-26T05:01:03.480Z,13.22
2019-05-26T05:06:11.114Z,13.29
2019-05-26T05:08:58.551Z,13.33
2019-05-26T05:11:30.919Z,13.38
2019-05-26T05:16:35.546Z,13.49
2019-05-26T05:19:05.815Z,13.38
2019-05-26T05:21:53.369Z,13.38
2019-05-26T05:24:21.743Z,13.28
2019-05-26T05:26:50.801Z,13.35
2019-05-26T05:29:19.242Z,13.45
2019-05-26T05:31:51.583Z,13.57
2019-05-26T05:34:19.913Z,13.56
2019-05-26T05:36:56.779Z,13.65
2019-05-26T05:42:04.408Z,13.59
2019-05-26T05:44:33.682Z,13.69
2019-05-26T05:47:03.981Z,13.74
2019-05-26T05:49:36.873Z,13.81
2019-05-26T05:52:06.124Z,14.02
2019-05-26T05:54:34.525Z,13.99
2019-05-26T05:57:03.852Z,14.11
2019-05-26T05:59:40.178Z,14.19
2019-05-26T06:02:08.477Z,14.48
2019-05-26T06:04:54.457Z,14.50
2019-05-26T06:07:22.808Z,14.62
2019-05-26T06:09:57.370Z,14.97
2019-05-26T06:12:38.910Z,14.82
2019-05-26T06:15:09.735Z,14.86
2019-05-26T06:17:42.075Z,14.81
2019-05-26T06:20:10.453Z,14.72
2019-05-26T06:25:16.057Z,14.83
2019-05-26T06:30:35.430Z,14.87
2019-05-26T06:33:03.807Z,14.81
2019-05-26T06:35:33.255Z,15.16
2019-05-26T06:38:04.787Z,15.10
2019-05-26T06:40:34.053Z,15.26
2019-05-26T06:43:03.340Z,15.32
2019-05-26T06:45:35.238Z,15.27
2019-05-26T06:48:03.656Z,15.06
2019-05-26T06:50:35.741Z,14.94
2019-05-26T06:55:43.389Z,15.60
2019-05-26T06:58:11.773Z,15.66
2019-05-26T07:00:40.127Z,15.66
2019-05-26T07:03:11.701Z,15.39
2019-05-26T07:05:40.727Z,15.70
2019-05-26T07:08:14.499Z,15.42
2019-05-26T07:10:42.889Z,15.59
2019-05-26T07:13:11.266Z,15.71
2019-05-26T07:15:39.635Z,16.15
2019-05-26T07:20:44.314Z,16.29
2019-05-26T07:23:12.817Z,16.30
2019-05-26T07:25:41.073Z,16.18
2019-05-26T07:28:12.967Z,16.13
2019-05-26T07:30:41.349Z,16.70
2019-05-26T07:33:11.657Z,16.89
2019-05-26T07:38:16.340Z,16.48
2019-05-26T07:40:47.194Z,16.55
2019-05-26T07:43:20.775Z,16.29
2019-05-26T07:45:49.168Z,16.12
2019-05-26T07:48:17.539Z,15.92
2019-05-26T07:50:45.911Z,16.14
2019-05-26T07:55:50.666Z,16.75
2019-05-26T07:58:34.048Z,17.26
2019-05-26T08:01:02.397Z,17.74
2019-05-26T08:03:30.742Z,17.25
2019-05-26T08:08:35.469Z,16.42
2019-05-26T08:11:07.283Z,16.34
2019-05-26T08:13:35.661Z,17.11
2019-05-26T08:16:04.020Z,17.13
2019-05-26T08:18:34.269Z,17.11
2019-05-26T08:21:19.906Z,16.89
2019-05-26T08:23:48.253Z,17.45
2019-05-26T08:26:29.530Z,17.82
2019-05-26T08:29:11.387Z,18.37
2019-05-26T08:31:39.746Z,18.61
2019-05-26T08:34:33.711Z,18.35
2019-05-26T08:37:02.836Z,17.73
2019-05-26T08:44:55.890Z,17.85
2019-05-26T08:53:14.378Z,17.88
2019-05-26T08:55:42.763Z,17.67
2019-05-26T08:58:21.883Z,18.45
2019-05-26T09:00:50.277Z,18.62
2019-05-26T09:03:33.313Z,18.66
2019-05-26T09:06:02.594Z,18.90
2019-05-26T09:11:09.305Z,19.22
2019-05-26T09:13:41.055Z,18.94
2019-05-26T09:16:09.444Z,19.04
2019-05-26T09:18:38.682Z,18.93
2019-05-26T09:21:07.946Z,19.23
2019-05-26T09:26:16.516Z,19.30
2019-05-26T09:28:46.821Z,18.47
2019-05-26T09:31:15.154Z,19.68
2019-05-26T09:36:19.784Z,20.41
2019-05-26T09:38:53.707Z,20.34
2019-05-26T09:44:02.291Z,19.04
2019-05-26T09:49:07.902Z,20.68
2019-05-26T09:51:39.868Z,21.74
2019-05-26T09:54:08.718Z,21.24
2019-05-26T09:56:41.503Z,21.66
2019-05-26T09:59:09.885Z,22.13
2019-05-26T10:01:39.149Z,22.93
2019-05-26T10:04:07.517Z,23.01
2019-05-26T10:09:26.198Z,25.14
2019-05-26T10:11:55.467Z,22.91
2019-05-26T10:14:23.809Z,22.65
2019-05-26T10:16:57.804Z,23.42
2019-05-26T10:19:31.376Z,22.96
2019-05-26T10:22:04.061Z,25.01
2019-05-26T10:24:41.085Z,24.88
2019-05-26T10:27:09.435Z,24.09
2019-05-26T10:29:37.800Z,22.33
2019-05-26T10:32:06.165Z,22.55
2019-05-26T10:34:41.184Z,23.27
2019-05-26T10:37:09.536Z,22.79
2019-05-26T10:39:44.832Z,22.82
2019-05-26T10:42:09.919Z,23.15
2019-05-26T10:47:19.831Z,22.76
2019-05-26T10:49:48.284Z,21.59
2019-05-26T10:55:12.938Z,22.47
2019-05-26T10:57:43.315Z,21.10
2019-05-26T11:00:24.902Z,21.62
2019-05-26T11:02:53.501Z,21.82
2019-05-26T11:05:36.181Z,21.44
2019-05-26T11:08:18.145Z,21.69
2019-05-26T11:10:46.646Z,22.36
2019-05-26T11:13:17.002Z,22.08
2019-05-26T11:15:45.405Z,21.62
2019-05-26T11:18:13.759Z,21.87
2019-05-26T11:20:42.138Z,20.90
2019-05-26T11:23:10.512Z,21.18
2019-05-26T11:25:44.928Z,21.89
2019-05-26T11:28:14.403Z,22.03
2019-05-26T11:30:42.886Z,21.95
2019-05-26T11:33:11.313Z,21.21
2019-05-26T11:35:45.965Z,21.76
2019-05-26T11:38:15.258Z,21.47
2019-05-26T11:41:01.492Z,20.36
2019-05-26T11:43:29.833Z,20.37
2019-05-26T11:46:04.102Z,20.67
2019-05-26T11:48:39.328Z,20.07
2019-05-26T11:51:09.799Z,19.96
2019-05-26T11:53:38.157Z,19.99
2019-05-26T11:56:11.337Z,19.51
2019-05-26T11:58:52.753Z,19.95
2019-05-26T12:01:23.219Z,19.83
2019-05-26T12:03:57.928Z,20.16
2019-05-26T12:06:26.317Z,20.03
2019-05-26T12:09:00.039Z,20.55
2019-05-26T12:11:30.338Z,20.67
2019-05-26T12:13:59.682Z,21.05
2019-05-26T12:16:29.117Z,21.91
2019-05-26T12:19:01.230Z,21.28
2019-05-26T12:21:33.108Z,20.85
2019-05-26T12:24:01.488Z,21.00
2019-05-26T12:26:57.550Z,22.01
2019-05-26T12:29:39.291Z,23.45
2019-05-26T12:32:09.542Z,23.24
2019-05-26T12:37:17.264Z,24.63
2019-05-26T12:39:51.704Z,24.11
2019-05-26T12:45:01.270Z,24.60
2019-05-26T12:47:30.441Z,23.87
2019-05-26T12:49:58.798Z,23.87
2019-05-26T12:52:27.280Z,23.81
2019-05-26T12:55:02.002Z,24.56
2019-05-26T12:57:56.729Z,23.47
2019-05-26T13:00:26.987Z,23.14
2019-05-26T13:05:39.583Z,23.45
2019-05-26T13:08:08.052Z,25.74
2019-05-26T13:10:36.593Z,26.74
2019-05-26T13:13:05.842Z,26.71
2019-05-26T13:15:41.412Z,26.00
2019-05-26T13:18:09.776Z,23.55
2019-05-26T13:20:43.057Z,22.30
2019-05-26T13:23:12.340Z,22.70
2019-05-26T13:25:42.299Z,23.41
2019-05-26T13:28:12.581Z,24.46
2019-05-26T13:30:44.197Z,23.39
2019-05-26T13:33:12.531Z,24.75
2019-05-26T13:35:55.925Z,25.06
2019-05-26T13:38:24.374Z,25.04
2019-05-26T13:41:00.754Z,24.35
2019-05-26T13:43:55.140Z,25.49
2019-05-26T13:46:25.412Z,25.25
2019-05-26T13:49:00.325Z,25.61
2019-05-26T13:51:32.370Z,26.48
2019-05-26T13:54:00.799Z,29.08
2019-05-26T13:56:32.860Z,28.98
2019-05-26T13:59:01.250Z,28.99
2019-05-26T14:04:06.041Z,27.86
2019-05-26T14:06:39.028Z,28.85
2019-05-26T14:09:07.406Z,30.33
2019-05-26T14:11:36.496Z,28.22
2019-05-26T14:14:04.858Z,30.13
2019-05-26T14:19:25.691Z,34.41
2019-05-26T14:21:58.587Z,32.27
2019-05-26T14:24:28.147Z,30.91
2019-05-26T14:26:56.546Z,30.35
2019-05-26T14:29:29.032Z,29.51
2019-05-26T14:31:59.460Z,29.00
2019-05-26T14:34:36.038Z,27.96
2019-05-26T14:37:06.386Z,27.84
2019-05-26T14:39:36.694Z,26.28
2019-05-26T14:42:10.858Z,25.41
2019-05-26T14:44:40.157Z,23.40
2019-05-26T14:47:23.724Z,24.18
2019-05-26T14:49:52.056Z,25.76
2019-05-26T14:52:27.212Z,24.28
2019-05-26T14:57:41.894Z,25.88
2019-05-26T15:02:50.571Z,24.07
2019-05-26T15:05:24.130Z,23.99
2019-05-26T15:07:54.469Z,23.62
2019-05-26T15:10:23.738Z,22.93
2019-05-26T15:12:57.600Z,23.43
2019-05-26T15:15:25.995Z,23.25
2019-05-26T15:17:54.974Z,23.63
2019-05-26T15:20:23.347Z,23.55
2019-05-26T15:22:51.768Z,23.28
2019-05-26T15:25:23.712Z,23.26
2019-05-26T15:27:57.481Z,23.41
2019-05-26T15:30:26.636Z,23.07
2019-05-26T15:33:05.605Z,23.05
2019-05-26T15:35:34.037Z,22.59
2019-05-26T15:40:38.740Z,22.75
2019-05-26T15:43:07.108Z,22.28
2019-05-26T15:45:35.478Z,21.34
2019-05-26T15:48:05.778Z,21.10
2019-05-26T15:50:36.324Z,21.17
2019-05-26T15:53:10.523Z,20.94
2019-05-26T15:55:40.858Z,20.76
2019-05-26T15:58:09.932Z,21.27
2019-05-26T16:00:39.126Z,21.50
2019-05-26T16:03:09.389Z,20.96
2019-05-26T16:05:37.742Z,20.85
2019-05-26T16:10:58.309Z,22.17
2019-05-26T16:13:26.679Z,25.21
2019-05-26T16:15:55.101Z,26.15
2019-05-26T16:18:25.363Z,26.25
2019-05-26T16:21:03.145Z,25.55
2019-05-26T16:23:26.083Z,24.41
2019-05-26T16:25:55.436Z,23.65
2019-05-26T16:28:24.682Z,22.20
2019-05-26T16:30:57.783Z,21.24
2019-05-26T16:33:27.040Z,21.10
2019-05-26T16:36:01.458Z,20.83
2019-05-26T16:38:29.856Z,20.84
2019-05-26T16:41:02.491Z,21.09
2019-05-26T16:43:33.844Z,21.16
2019-05-26T16:46:02.176Z,21.08
2019-05-26T16:53:48.303Z,20.63
2019-05-26T16:56:16.673Z,20.81
2019-05-26T16:58:45.378Z,20.86
2019-05-26T17:01:13.767Z,20.91
2019-05-26T17:03:42.154Z,20.64
2019-05-26T17:06:17.159Z,20.54
2019-05-26T17:08:45.581Z,20.18
2019-05-26T17:11:17.242Z,19.98
2019-05-26T17:13:47.967Z,19.98
2019-05-26T17:16:26.487Z,19.90
2019-05-26T17:19:01.413Z,19.89
2019-05-26T17:21:30.659Z,19.75
2019-05-26T17:24:04.362Z,19.74
2019-05-26T17:26:32.712Z,19.85
2019-05-26T17:29:04.930Z,19.74
2019-05-26T17:31:34.123Z,19.73
2019-05-26T17:34:02.526Z,19.71
2019-05-26T17:36:30.894Z,19.65
2019-05-26T17:38:59.262Z,19.56
2019-05-26T17:41:28.858Z,19.46
2019-05-26T17:44:17.965Z,19.42
2019-05-26T17:46:53.446Z,19.36
2019-05-26T17:51:58.115Z,19.52
2019-05-26T17:54:27.405Z,19.51
2019-05-26T17:57:06.197Z,19.40
2019-05-26T17:59:35.477Z,19.37
2019-05-26T18:02:03.820Z,19.29
2019-05-26T18:04:32.189Z,19.22
2019-05-26T18:09:44.089Z,19.07
2019-05-26T18:12:05.209Z,19.04
2019-05-26T18:14:33.615Z,18.85
2019-05-26T18:17:06.845Z,18.68
2019-05-26T18:19:36.025Z,18.54
2019-05-26T18:24:54.982Z,18.31
2019-05-26T18:27:15.439Z,18.20
2019-05-26T18:29:44.806Z,18.15
2019-05-26T18:32:13.293Z,17.98
2019-05-26T18:34:41.645Z,17.72
2019-05-26T18:37:09.991Z,17.52
2019-05-26T18:39:41.950Z,17.43
2019-05-26T18:42:10.296Z,17.24
2019-05-26T18:45:00.307Z,16.97
2019-05-26T18:50:54.627Z,16.71
2019-05-26T18:53:34.849Z,16.51
2019-05-26T18:56:03.268Z,16.35
2019-05-26T18:58:33.574Z,16.31
2019-05-26T19:01:02.729Z,16.10
2019-05-26T19:03:50.228Z,15.91
2019-05-26T19:06:18.592Z,15.63
2019-05-26T19:11:59.600Z,15.44
2019-05-26T19:20:42.378Z,14.88
2019-05-26T19:23:11.282Z,14.91
2019-05-26T19:25:40.581Z,14.81
2019-05-26T19:28:08.984Z,14.71
2019-05-26T19:30:39.317Z,14.65
2019-05-26T19:33:07.694Z,14.60
2019-05-26T19:41:23.807Z,14.78
2019-05-26T19:49:07.676Z,14.63
2019-05-26T19:51:38.423Z,14.40
2019-05-26T19:54:06.784Z,14.13
2019-05-26T19:56:35.128Z,13.93
2019-05-26T19:59:03.552Z,13.79
2019-05-26T20:04:11.114Z,13.66
2019-05-26T20:06:59.179Z,13.55
2019-05-26T20:09:27.588Z,13.48
2019-05-26T20:11:58.111Z,13.37
2019-05-26T20:14:37.187Z,13.29
2019-05-26T20:17:05.565Z,13.23
2019-05-26T20:19:35.857Z,13.16
2019-05-26T20:22:04.206Z,13.10
2019-05-26T20:24:33.482Z,13.04
2019-05-26T20:27:01.847Z,12.96
2019-05-26T20:29:30.236Z,12.91
2019-05-26T20:31:58.669Z,12.83
2019-05-26T20:34:27.042Z,12.80
2019-05-26T20:36:56.327Z,12.79
2019-05-26T20:39:28.365Z,12.73
2019-05-26T20:42:00.083Z,12.71
2019-05-26T20:44:28.426Z,12.70
2019-05-26T20:47:27.194Z,12.65
2019-05-26T20:49:55.670Z,12.69
2019-05-26T20:55:27.218Z,12.60
2019-05-26T21:00:35.908Z,12.55
2019-05-26T21:05:40.547Z,12.44
2019-05-26T21:08:13.371Z,12.44
2019-05-26T21:10:41.794Z,12.50
2019-05-26T21:13:16.044Z,12.50
2019-05-26T21:15:47.616Z,12.41
2019-05-26T21:18:17.946Z,12.46
2019-05-26T21:23:27.587Z,12.69
2019-05-26T21:25:55.910Z,12.63
2019-05-26T21:28:25.262Z,12.62
2019-05-26T21:31:10.481Z,12.61
2019-05-26T21:33:38.870Z,12.53
2019-05-26T21:38:43.570Z,12.44
2019-05-26T21:41:14.746Z,12.37
2019-05-26T21:43:43.303Z,12.26
2019-05-26T21:46:15.080Z,12.13
2019-05-26T21:48:43.463Z,12.06
2019-05-26T21:54:08.314Z,11.94
2019-05-26T21:56:36.649Z,11.86
2019-05-26T22:01:41.272Z,11.96
2019-05-26T22:04:09.617Z,12.00
2019-05-26T22:06:37.980Z,12.06
2019-05-26T22:09:06.336Z,11.93
2019-05-26T22:11:36.675Z,11.77
2019-05-26T22:14:05.087Z,11.79
2019-05-26T22:19:05.253Z,11.91
2019-05-26T22:21:35.546Z,11.86
2019-05-26T22:24:04.981Z,11.85
2019-05-26T22:26:33.269Z,11.81
2019-05-26T22:29:01.639Z,11.76
2019-05-26T22:34:10.264Z,11.85
2019-05-26T22:36:39.559Z,11.76
2019-05-26T22:39:07.966Z,11.66
2019-05-26T22:41:54.536Z,11.57
2019-05-26T22:44:28.632Z,11.48
2019-05-26T22:46:57.185Z,11.45
2019-05-26T22:49:25.549Z,11.45
2019-05-26T22:52:07.638Z,11.42
2019-05-26T22:54:53.451Z,11.46
2019-05-26T22:57:21.849Z,11.38
2019-05-26T23:00:05.665Z,11.39
2019-05-26T23:02:51.912Z,11.38
2019-05-26T23:05:20.304Z,11.36
2019-05-26T23:08:05.465Z,11.30
2019-05-26T23:13:10.054Z,11.18
2019-05-26T23:15:39.445Z,11.16
2019-05-26T23:18:08.717Z,11.14
2019-05-26T23:23:18.269Z,11.13
2019-05-26T23:28:27.747Z,11.22
2019-05-26T23:30:58.097Z,11.19
2019-05-26T23:33:35.051Z,11.18
2019-05-26T23:36:03.405Z,11.10
2019-05-26T23:38:54.001Z,11.09
2019-05-26T23:41:37.214Z,11.10
2019-05-26T23:44:05.573Z,11.13
2019-05-26T23:46:54.019Z,11.10
2019-05-26T23:49:32.567Z,11.00
2019-05-26T23:52:00.910Z,11.02
2019-05-26T23:57:07.514Z,11.02
2019-05-26T23:59:54.577Z,10.94
